sensor_id;sensor_type;location;lat;lon;timestamp;pressure;altitude;pressure_sealevel;temperature;humidity
18819;BME280;9537;45.594;9.294;2023-03-19T00:00:55;99898.22;;;8.52;63.50
18819;BME280;9537;45.594;9.294;2023-03-19T00:01:56;99898.22;;;8.52;63.42
18819;BME280;9537;45.594;9.294;2023-03-19T00:03:00;99894.63;;;8.53;63.01
18819;BME280;9537;45.594;9.294;2023-03-19T00:04:01;99895.59;;;8.52;62.68
18819;BME280;9537;45.594;9.294;2023-03-19T00:05:04;99889.66;;;8.50;62.69
18819;BME280;9537;45.594;9.294;2023-03-19T00:06:06;99896.28;;;8.54;63.48
18819;BME280;9537;45.594;9.294;2023-03-19T00:07:08;99898.91;;;8.54;62.70
18819;BME280;9537;45.594;9.294;2023-03-19T00:08:09;99899.22;;;8.51;62.90
18819;BME280;9537;45.594;9.294;2023-03-19T00:09:11;99902.34;;;8.54;63.12
18819;BME280;9537;45.594;9.294;2023-03-19T00:10:12;99901.38;;;8.55;62.80
18819;BME280;9537;45.594;9.294;2023-03-19T00:11:14;99902.88;;;8.58;63.30
18819;BME280;9537;45.594;9.294;2023-03-19T00:12:16;99908.63;;;8.53;63.84
18819;BME280;9537;45.594;9.294;2023-03-19T00:13:18;99905.16;;;8.53;63.38
18819;BME280;9537;45.594;9.294;2023-03-19T00:14:19;99911.25;;;8.53;63.70
18819;BME280;9537;45.594;9.294;2023-03-19T00:15:21;99901.38;;;8.55;63.22
18819;BME280;9537;45.594;9.294;2023-03-19T00:16:23;99903.19;;;8.55;63.05
18819;BME280;9537;45.594;9.294;2023-03-19T00:17:25;99905.66;;;8.56;63.64
18819;BME280;9537;45.594;9.294;2023-03-19T00:18:27;99907.00;;;8.61;62.93
18819;BME280;9537;45.594;9.294;2023-03-19T00:19:30;99905.88;;;8.63;63.61
18819;BME280;9537;45.594;9.294;2023-03-19T00:20:31;99909.19;;;8.65;63.76
18819;BME280;9537;45.594;9.294;2023-03-19T00:21:33;99910.19;;;8.64;63.46
18819;BME280;9537;45.594;9.294;2023-03-19T00:22:34;99910.19;;;8.64;63.59
18819;BME280;9537;45.594;9.294;2023-03-19T00:23:36;99915.13;;;8.67;63.20
18819;BME280;9537;45.594;9.294;2023-03-19T00:24:37;99909.88;;;8.67;63.26
18819;BME280;9537;45.594;9.294;2023-03-19T00:25:39;99913.47;;;8.66;62.94
18819;BME280;9537;45.594;9.294;2023-03-19T00:26:40;99903.41;;;8.62;63.27
18819;BME280;9537;45.594;9.294;2023-03-19T00:27:43;99906.94;;;8.52;63.32
18819;BME280;9537;45.594;9.294;2023-03-19T00:28:44;99911.56;;;8.50;63.73
18819;BME280;9537;45.594;9.294;2023-03-19T00:29:46;99906.28;;;8.50;63.18
18819;BME280;9537;45.594;9.294;2023-03-19T00:30:47;99902.97;;;8.48;63.68
18819;BME280;9537;45.594;9.294;2023-03-19T00:31:49;99899.97;;;8.43;63.63
18819;BME280;9537;45.594;9.294;2023-03-19T00:32:51;99905.00;;;8.37;64.13
18819;BME280;9537;45.594;9.294;2023-03-19T00:33:56;99899.56;;;8.38;64.30
18819;BME280;9537;45.594;9.294;2023-03-19T00:34:57;99900.03;;;8.33;63.71
18819;BME280;9537;45.594;9.294;2023-03-19T00:36:00;99901.16;;;8.31;63.84
18819;BME280;9537;45.594;9.294;2023-03-19T00:37:00;99901.31;;;8.29;64.04
18819;BME280;9537;45.594;9.294;2023-03-19T00:38:03;99896.50;;;8.25;63.77
18819;BME280;9537;45.594;9.294;2023-03-19T00:39:04;99900.72;;;8.18;64.81
18819;BME280;9537;45.594;9.294;2023-03-19T00:40:08;99895.44;;;8.18;64.55
18819;BME280;9537;45.594;9.294;2023-03-19T00:41:10;99893.94;;;8.15;65.00
18819;BME280;9537;45.594;9.294;2023-03-19T00:42:12;99902.81;;;8.14;64.46
18819;BME280;9537;45.594;9.294;2023-03-19T00:43:13;99899.38;;;8.13;64.77
18819;BME280;9537;45.594;9.294;2023-03-19T00:44:16;99891.63;;;8.12;65.46
18819;BME280;9537;45.594;9.294;2023-03-19T00:45:17;99897.88;;;8.11;65.54
18819;BME280;9537;45.594;9.294;2023-03-19T00:46:20;99895.91;;;8.13;65.26
18819;BME280;9537;45.594;9.294;2023-03-19T00:47:21;99904.34;;;8.17;65.56
18819;BME280;9537;45.594;9.294;2023-03-19T00:48:23;99899.06;;;8.17;65.83
18819;BME280;9537;45.594;9.294;2023-03-19T00:49:26;99899.38;;;8.13;65.71
18819;BME280;9537;45.594;9.294;2023-03-19T00:50:28;99901.84;;;8.15;65.13
18819;BME280;9537;45.594;9.294;2023-03-19T00:51:30;99895.75;;;8.15;65.50
18819;BME280;9537;45.594;9.294;2023-03-19T00:52:32;99900.72;;;8.18;65.50
18819;BME280;9537;45.594;9.294;2023-03-19T00:53:36;99897.13;;;8.19;65.65
18819;BME280;9537;45.594;9.294;2023-03-19T00:54:37;99902.38;;;8.19;65.78
18819;BME280;9537;45.594;9.294;2023-03-19T00:55:39;99902.38;;;8.19;65.24
18819;BME280;9537;45.594;9.294;2023-03-19T00:56:41;99897.94;;;8.19;65.59
18819;BME280;9537;45.594;9.294;2023-03-19T00:57:42;99898.91;;;8.18;65.24
18819;BME280;9537;45.594;9.294;2023-03-19T00:58:44;99898.09;;;8.18;65.16
18819;BME280;9537;45.594;9.294;2023-03-19T00:59:45;99906.78;;;8.18;65.33
18819;BME280;9537;45.594;9.294;2023-03-19T01:00:47;99908.91;;;8.15;65.20
18819;BME280;9537;45.594;9.294;2023-03-19T01:01:51;99909.38;;;8.10;65.70
18819;BME280;9537;45.594;9.294;2023-03-19T01:02:55;99901.31;;;8.11;64.91
18819;BME280;9537;45.594;9.294;2023-03-19T01:03:56;99900.59;;;8.01;65.78
18819;BME280;9537;45.594;9.294;2023-03-19T01:05:00;99899.22;;;7.97;66.07
18819;BME280;9537;45.594;9.294;2023-03-19T01:06:01;99900.59;;;8.01;65.90
18819;BME280;9537;45.594;9.294;2023-03-19T01:07:04;99898.09;;;8.00;65.59
18819;BME280;9537;45.594;9.294;2023-03-19T01:08:05;99903.50;;;7.98;65.77
18819;BME280;9537;45.594;9.294;2023-03-19T01:09:07;99906.41;;;7.95;66.15
18819;BME280;9537;45.594;9.294;2023-03-19T01:10:09;99901.16;;;7.95;65.45
18819;BME280;9537;45.594;9.294;2023-03-19T01:11:12;99909.06;;;7.95;65.84
18819;BME280;9537;45.594;9.294;2023-03-19T01:12:14;99909.91;;;7.96;65.88
18819;BME280;9537;45.594;9.294;2023-03-19T01:13:16;99907.31;;;7.86;65.71
18819;BME280;9537;45.594;9.294;2023-03-19T01:14:17;99900.72;;;7.82;65.64
18819;BME280;9537;45.594;9.294;2023-03-19T01:15:19;99905.81;;;7.83;65.94
18819;BME280;9537;45.594;9.294;2023-03-19T01:16:21;99911.25;;;7.82;66.11
18819;BME280;9537;45.594;9.294;2023-03-19T01:17:23;99903.78;;;7.77;66.06
18819;BME280;9537;45.594;9.294;2023-03-19T01:18:24;99899.66;;;7.75;66.64
18819;BME280;9537;45.594;9.294;2023-03-19T01:19:26;99902.66;;;7.80;66.41
18819;BME280;9537;45.594;9.294;2023-03-19T01:20:30;99901.97;;;7.78;65.99
18819;BME280;9537;45.594;9.294;2023-03-19T01:21:32;99899.91;;;7.81;66.41
18819;BME280;9537;45.594;9.294;2023-03-19T01:22:35;99899.31;;;7.87;65.67
18819;BME280;9537;45.594;9.294;2023-03-19T01:23:38;99895.16;;;7.85;66.50
18819;BME280;9537;45.594;9.294;2023-03-19T01:24:39;99895.84;;;7.87;65.77
18819;BME280;9537;45.594;9.294;2023-03-19T01:25:41;99895.84;;;7.87;65.92
18819;BME280;9537;45.594;9.294;2023-03-19T01:26:42;99899.94;;;7.89;66.14
18819;BME280;9537;45.594;9.294;2023-03-19T01:27:45;99900.81;;;7.90;66.23
18819;BME280;9537;45.594;9.294;2023-03-19T01:28:46;99895.97;;;7.85;66.27
18819;BME280;9537;45.594;9.294;2023-03-19T01:29:48;99896.28;;;7.82;65.94
18819;BME280;9537;45.594;9.294;2023-03-19T01:30:50;99893.94;;;7.79;65.66
18819;BME280;9537;45.594;9.294;2023-03-19T01:31:52;99893.94;;;7.79;66.09
18819;BME280;9537;45.594;9.294;2023-03-19T01:32:53;99893.78;;;7.81;66.08
18819;BME280;9537;45.594;9.294;2023-03-19T01:33:56;99905.16;;;7.81;66.27
18819;BME280;9537;45.594;9.294;2023-03-19T01:34:57;99896.88;;;7.76;66.93
18819;BME280;9537;45.594;9.294;2023-03-19T01:36:00;99897.84;;;7.75;66.12
18819;BME280;9537;45.594;9.294;2023-03-19T01:37:03;99897.19;;;7.73;66.24
18819;BME280;9537;45.594;9.294;2023-03-19T01:38:05;99893.19;;;7.69;66.68
18819;BME280;9537;45.594;9.294;2023-03-19T01:39:08;99887.09;;;7.68;67.02
18819;BME280;9537;45.594;9.294;2023-03-19T01:40:12;99886.97;;;7.70;66.27
18819;BME280;9537;45.594;9.294;2023-03-19T01:41:14;99886.78;;;7.72;67.02
18819;BME280;9537;45.594;9.294;2023-03-19T01:42:16;99888.59;;;7.71;66.12
18819;BME280;9537;45.594;9.294;2023-03-19T01:43:20;99880.41;;;7.74;66.83
18819;BME280;9537;45.594;9.294;2023-03-19T01:44:23;99886.38;;;7.76;66.96
18819;BME280;9537;45.594;9.294;2023-03-19T01:45:29;99894.25;;;7.76;66.85
18819;BME280;9537;45.594;9.294;2023-03-19T01:46:33;99887.50;;;7.74;66.93
18819;BME280;9537;45.594;9.294;2023-03-19T01:47:40;99885.84;;;7.73;66.70
18819;BME280;9537;45.594;9.294;2023-03-19T01:48:43;99880.13;;;7.77;67.02
18819;BME280;9537;45.594;9.294;2023-03-19T01:49:51;99883.22;;;7.73;66.90
18819;BME280;9537;45.594;9.294;2023-03-19T01:50:53;99883.22;;;7.73;67.23
18819;BME280;9537;45.594;9.294;2023-03-19T01:51:58;99881.09;;;7.76;66.31
18819;BME280;9537;45.594;9.294;2023-03-19T01:53:01;99880.41;;;7.74;67.13
18819;BME280;9537;45.594;9.294;2023-03-19T01:54:06;99874.94;;;7.67;67.26
18819;BME280;9537;45.594;9.294;2023-03-19T01:55:10;99871.03;;;7.72;66.72
18819;BME280;9537;45.594;9.294;2023-03-19T01:56:16;99866.59;;;7.72;66.66
18819;BME280;9537;45.594;9.294;2023-03-19T01:57:21;99863.97;;;7.72;67.06
18819;BME280;9537;45.594;9.294;2023-03-19T01:58:23;99863.66;;;7.75;67.05
18819;BME280;9537;45.594;9.294;2023-03-19T01:59:29;99860.22;;;7.75;67.42
18819;BME280;9537;45.594;9.294;2023-03-19T02:00:31;99857.88;;;7.72;67.42
18819;BME280;9537;45.594;9.294;2023-03-19T02:01:38;99855.13;;;7.73;66.93
18819;BME280;9537;45.594;9.294;2023-03-19T02:02:46;99859.00;;;7.69;67.29
18819;BME280;9537;45.594;9.294;2023-03-19T02:03:50;99861.50;;;7.71;67.36
18819;BME280;9537;45.594;9.294;2023-03-19T02:04:55;99863.59;;;7.67;67.30
18819;BME280;9537;45.594;9.294;2023-03-19T02:05:59;99863.22;;;7.62;67.50
18819;BME280;9537;45.594;9.294;2023-03-19T02:07:03;99864.63;;;7.56;67.86
18819;BME280;9537;45.594;9.294;2023-03-19T02:08:08;99860.34;;;7.55;67.60
18819;BME280;9537;45.594;9.294;2023-03-19T02:09:12;99860.94;;;7.49;67.56
18819;BME280;9537;45.594;9.294;2023-03-19T02:10:15;99855.38;;;7.52;67.93
18819;BME280;9537;45.594;9.294;2023-03-19T02:11:19;99864.94;;;7.53;68.03
18819;BME280;9537;45.594;9.294;2023-03-19T02:12:20;99867.56;;;7.53;68.21
18819;BME280;9537;45.594;9.294;2023-03-19T02:13:23;99862.44;;;7.52;67.64
18819;BME280;9537;45.594;9.294;2023-03-19T02:14:24;99858.75;;;7.44;68.67
18819;BME280;9537;45.594;9.294;2023-03-19T02:15:26;99863.19;;;7.44;67.65
18819;BME280;9537;45.594;9.294;2023-03-19T02:16:28;99863.31;;;7.42;67.66
18819;BME280;9537;45.594;9.294;2023-03-19T02:17:30;99867.06;;;7.40;67.84
18819;BME280;9537;45.594;9.294;2023-03-19T02:18:32;99853.81;;;7.41;68.11
18819;BME280;9537;45.594;9.294;2023-03-19T02:19:41;99850.19;;;7.42;68.53
18819;BME280;9537;45.594;9.294;2023-03-19T02:20:48;99849.38;;;7.42;67.49
18819;BME280;9537;45.594;9.294;2023-03-19T02:21:52;99848.25;;;7.44;68.57
18819;BME280;9537;45.594;9.294;2023-03-19T02:23:02;99842.91;;;7.36;68.29
18819;BME280;9537;45.594;9.294;2023-03-19T02:24:11;99840.78;;;7.40;68.04
18819;BME280;9537;45.594;9.294;2023-03-19T02:25:18;99844.94;;;7.42;67.54
18819;BME280;9537;45.594;9.294;2023-03-19T02:26:26;99848.25;;;7.44;67.45
18819;BME280;9537;45.594;9.294;2023-03-19T02:27:30;99841.03;;;7.47;67.70
18819;BME280;9537;45.594;9.294;2023-03-19T02:28:32;99845.91;;;7.41;67.71
18819;BME280;9537;45.594;9.294;2023-03-19T02:29:34;99847.69;;;7.41;67.64
18819;BME280;9537;45.594;9.294;2023-03-19T02:30:36;99851.47;;;7.38;68.32
18819;BME280;9537;45.594;9.294;2023-03-19T02:31:39;99847.63;;;7.33;68.06
18819;BME280;9537;45.594;9.294;2023-03-19T02:32:40;99860.97;;;7.21;68.62
18819;BME280;9537;45.594;9.294;2023-03-19T02:33:42;99863.13;;;7.26;67.96
18819;BME280;9537;45.594;9.294;2023-03-19T02:34:43;99862.06;;;7.19;68.34
18819;BME280;9537;45.594;9.294;2023-03-19T02:35:48;99859.97;;;7.22;68.22
18819;BME280;9537;45.594;9.294;2023-03-19T02:36:52;99857.34;;;7.22;68.00
18819;BME280;9537;45.594;9.294;2023-03-19T02:37:56;99858.47;;;7.20;68.29
18819;BME280;9537;45.594;9.294;2023-03-19T02:38:59;99859.28;;;7.20;68.54
18819;BME280;9537;45.594;9.294;2023-03-19T02:40:06;99855.03;;;7.19;68.39
18819;BME280;9537;45.594;9.294;2023-03-19T02:41:09;99863.50;;;7.13;68.40
18819;BME280;9537;45.594;9.294;2023-03-19T02:42:13;99854.63;;;7.14;68.25
18819;BME280;9537;45.594;9.294;2023-03-19T02:43:15;99854.22;;;7.09;68.39
18819;BME280;9537;45.594;9.294;2023-03-19T02:44:17;99849.97;;;7.08;68.32
18819;BME280;9537;45.594;9.294;2023-03-19T02:45:19;99842.78;;;7.10;68.87
18819;BME280;9537;45.594;9.294;2023-03-19T02:46:22;99846.06;;;7.12;68.16
18819;BME280;9537;45.594;9.294;2023-03-19T02:47:23;99844.13;;;7.14;68.45
18819;BME280;9537;45.594;9.294;2023-03-19T02:48:25;99837.22;;;7.13;68.20
18819;BME280;9537;45.594;9.294;2023-03-19T02:49:26;99843.16;;;7.15;68.84
18819;BME280;9537;45.594;9.294;2023-03-19T02:50:29;99843.44;;;7.12;68.87
18819;BME280;9537;45.594;9.294;2023-03-19T02:51:30;99845.53;;;7.09;68.35
18819;BME280;9537;45.594;9.294;2023-03-19T02:52:32;99852.47;;;7.00;68.93
18819;BME280;9537;45.594;9.294;2023-03-19T02:53:33;99849.16;;;6.98;69.13
18819;BME280;9537;45.594;9.294;2023-03-19T02:54:35;99862.44;;;6.96;68.36
18819;BME280;9537;45.594;9.294;2023-03-19T02:55:37;99854.03;;;6.93;68.46
18819;BME280;9537;45.594;9.294;2023-03-19T02:56:39;99857.34;;;6.95;68.67
18819;BME280;9537;45.594;9.294;2023-03-19T02:57:41;99862.88;;;6.92;68.80
18819;BME280;9537;45.594;9.294;2023-03-19T02:58:43;99860.41;;;6.90;68.64
18819;BME280;9537;45.594;9.294;2023-03-19T02:59:44;99850.03;;;6.89;69.06
18819;BME280;9537;45.594;9.294;2023-03-19T03:00:46;99853.34;;;6.91;68.77
18819;BME280;9537;45.594;9.294;2023-03-19T03:01:47;99857.91;;;6.89;69.27
18819;BME280;9537;45.594;9.294;2023-03-19T03:02:50;99858.72;;;6.89;69.48
18819;BME280;9537;45.594;9.294;2023-03-19T03:03:51;99856.09;;;6.89;69.11
18819;BME280;9537;45.594;9.294;2023-03-19T03:04:53;99857.09;;;6.88;68.79
18819;BME280;9537;45.594;9.294;2023-03-19T03:05:54;99856.97;;;6.90;69.08
18819;BME280;9537;45.594;9.294;2023-03-19T03:06:57;99855.97;;;6.91;69.44
18819;BME280;9537;45.594;9.294;2023-03-19T03:07:58;99855.00;;;6.92;69.24
18819;BME280;9537;45.594;9.294;2023-03-19T03:09:00;99860.13;;;6.93;68.87
18819;BME280;9537;45.594;9.294;2023-03-19T03:10:01;99859.97;;;6.95;68.99
18819;BME280;9537;45.594;9.294;2023-03-19T03:11:04;99860.81;;;6.95;68.51
18819;BME280;9537;45.594;9.294;2023-03-19T03:12:05;99856.38;;;6.96;68.87
18819;BME280;9537;45.594;9.294;2023-03-19T03:13:09;99858.19;;;6.95;68.59
18819;BME280;9537;45.594;9.294;2023-03-19T03:14:10;99858.72;;;6.99;68.48
18819;BME280;9537;45.594;9.294;2023-03-19T03:15:12;99861.19;;;7.00;68.38
18819;BME280;9537;45.594;9.294;2023-03-19T03:16:13;99862.03;;;7.01;68.58
18819;BME280;9537;45.594;9.294;2023-03-19T03:17:16;99858.84;;;6.97;68.41
18819;BME280;9537;45.594;9.294;2023-03-19T03:18:17;99852.47;;;7.00;67.90
18819;BME280;9537;45.594;9.294;2023-03-19T03:19:20;99857.50;;;6.84;67.94
18819;BME280;9537;45.594;9.294;2023-03-19T03:20:22;99860.53;;;6.89;67.73
18819;BME280;9537;45.594;9.294;2023-03-19T03:21:24;99860.69;;;6.87;68.42
18819;BME280;9537;45.594;9.294;2023-03-19T03:22:25;99858.91;;;6.88;67.82
18819;BME280;9537;45.594;9.294;2023-03-19T03:23:27;99857.38;;;6.85;68.07
18819;BME280;9537;45.594;9.294;2023-03-19T03:24:28;99851.16;;;6.86;68.60
18819;BME280;9537;45.594;9.294;2023-03-19T03:25:30;99853.78;;;6.86;68.47
18819;BME280;9537;45.594;9.294;2023-03-19T03:26:32;99853.63;;;6.88;68.36
18819;BME280;9537;45.594;9.294;2023-03-19T03:27:38;99856.97;;;6.90;68.75
18819;BME280;9537;45.594;9.294;2023-03-19T03:28:40;99857.91;;;6.89;69.17
18819;BME280;9537;45.594;9.294;2023-03-19T03:29:43;99861.22;;;6.91;68.41
18819;BME280;9537;45.594;9.294;2023-03-19T03:30:44;99861.06;;;6.92;68.58
18819;BME280;9537;45.594;9.294;2023-03-19T03:31:46;99868.00;;;6.93;68.67
18819;BME280;9537;45.594;9.294;2023-03-19T03:32:47;99866.06;;;6.95;68.65
18819;BME280;9537;45.594;9.294;2023-03-19T03:33:49;99869.50;;;6.96;68.79
18819;BME280;9537;45.594;9.294;2023-03-19T03:34:50;99861.81;;;6.85;68.83
18819;BME280;9537;45.594;9.294;2023-03-19T03:35:52;99868.00;;;6.84;68.63
18819;BME280;9537;45.594;9.294;2023-03-19T03:36:53;99868.75;;;6.76;68.30
18819;BME280;9537;45.594;9.294;2023-03-19T03:37:55;99868.47;;;6.69;68.44
18819;BME280;9537;45.594;9.294;2023-03-19T03:38:57;99876.91;;;6.63;69.67
18819;BME280;9537;45.594;9.294;2023-03-19T03:39:59;99878.88;;;6.61;69.43
18819;BME280;9537;45.594;9.294;2023-03-19T03:41:00;99880.66;;;6.61;69.89
18819;BME280;9537;45.594;9.294;2023-03-19T03:42:03;99879.81;;;6.60;69.78
18819;BME280;9537;45.594;9.294;2023-03-19T03:43:04;99883.44;;;6.59;69.31
18819;BME280;9537;45.594;9.294;2023-03-19T03:44:07;99876.38;;;6.60;69.23
18819;BME280;9537;45.594;9.294;2023-03-19T03:45:09;99887.97;;;6.57;69.12
18819;BME280;9537;45.594;9.294;2023-03-19T03:46:11;99883.56;;;6.58;69.49
18819;BME280;9537;45.594;9.294;2023-03-19T03:47:13;99876.78;;;6.55;69.47
18819;BME280;9537;45.594;9.294;2023-03-19T03:48:16;99884.66;;;6.55;70.15
18819;BME280;9537;45.594;9.294;2023-03-19T03:49:17;99881.38;;;6.53;70.01
18819;BME280;9537;45.594;9.294;2023-03-19T03:50:19;99886.06;;;6.49;70.47
18819;BME280;9537;45.594;9.294;2023-03-19T03:51:20;99891.88;;;6.53;69.93
18819;BME280;9537;45.594;9.294;2023-03-19T03:52:22;99888.28;;;6.54;70.36
18819;BME280;9537;45.594;9.294;2023-03-19T03:53:23;99884.41;;;6.58;69.98
18819;BME280;9537;45.594;9.294;2023-03-19T03:54:25;99887.16;;;6.57;69.75
18819;BME280;9537;45.594;9.294;2023-03-19T03:55:26;99891.44;;;6.58;70.03
18819;BME280;9537;45.594;9.294;2023-03-19T03:56:29;99880.94;;;6.58;69.38
18819;BME280;9537;45.594;9.294;2023-03-19T03:57:30;99877.19;;;6.60;69.54
18819;BME280;9537;45.594;9.294;2023-03-19T03:58:33;99879.69;;;6.62;69.53
18819;BME280;9537;45.594;9.294;2023-03-19T03:59:35;99878.59;;;6.64;69.38
18819;BME280;9537;45.594;9.294;2023-03-19T04:00:37;99884.50;;;6.66;69.63
18819;BME280;9537;45.594;9.294;2023-03-19T04:01:38;99887.13;;;6.66;69.83
18819;BME280;9537;45.594;9.294;2023-03-19T04:02:40;99887.13;;;6.66;69.34
18819;BME280;9537;45.594;9.294;2023-03-19T04:03:42;99897.91;;;6.63;69.30
18819;BME280;9537;45.594;9.294;2023-03-19T04:04:45;99893.47;;;6.64;69.42
18819;BME280;9537;45.594;9.294;2023-03-19T04:05:46;99896.09;;;6.64;69.19
18819;BME280;9537;45.594;9.294;2023-03-19T04:06:48;99898.88;;;6.62;68.72
18819;BME280;9537;45.594;9.294;2023-03-19T04:07:50;99902.50;;;6.61;69.09
18819;BME280;9537;45.594;9.294;2023-03-19T04:08:52;99899.72;;;6.63;69.43
18819;BME280;9537;45.594;9.294;2023-03-19T04:09:55;99895.56;;;6.60;69.61
18819;BME280;9537;45.594;9.294;2023-03-19T04:10:57;99906.75;;;6.62;69.57
18819;BME280;9537;45.594;9.294;2023-03-19T04:11:59;99904.84;;;6.64;69.32
18819;BME280;9537;45.594;9.294;2023-03-19T04:13:01;99900.41;;;6.65;69.34
18819;BME280;9537;45.594;9.294;2023-03-19T04:14:02;99902.88;;;6.66;69.32
18819;BME280;9537;45.594;9.294;2023-03-19T04:15:09;99902.88;;;6.66;69.47
18819;BME280;9537;45.594;9.294;2023-03-19T04:16:10;99903.56;;;6.68;69.40
18819;BME280;9537;45.594;9.294;2023-03-19T04:17:13;99899.16;;;6.69;69.75
18819;BME280;9537;45.594;9.294;2023-03-19T04:18:14;99895.69;;;6.68;69.43
18819;BME280;9537;45.594;9.294;2023-03-19T04:19:16;99892.66;;;6.73;69.42
18819;BME280;9537;45.594;9.294;2023-03-19T04:20:17;99891.84;;;6.72;69.00
18819;BME280;9537;45.594;9.294;2023-03-19T04:21:22;99890.97;;;6.72;69.65
18819;BME280;9537;45.594;9.294;2023-03-19T04:22:23;99894.59;;;6.71;69.84
18819;BME280;9537;45.594;9.294;2023-03-19T04:23:25;99894.06;;;6.67;69.72
18819;BME280;9537;45.594;9.294;2023-03-19T04:24:26;99896.69;;;6.67;70.04
18819;BME280;9537;45.594;9.294;2023-03-19T04:25:28;99893.34;;;6.65;69.16
18819;BME280;9537;45.594;9.294;2023-03-19T04:26:32;99896.41;;;6.61;69.57
18819;BME280;9537;45.594;9.294;2023-03-19T04:27:34;99896.56;;;6.59;69.23
18819;BME280;9537;45.594;9.294;2023-03-19T04:28:35;99896.56;;;6.49;69.93
18819;BME280;9537;45.594;9.294;2023-03-19T04:29:37;99897.00;;;6.45;69.58
18819;BME280;9537;45.594;9.294;2023-03-19T04:30:40;99898.78;;;6.44;70.50
18819;BME280;9537;45.594;9.294;2023-03-19T04:31:44;99899.63;;;6.45;70.27
18819;BME280;9537;45.594;9.294;2023-03-19T04:32:45;99901.25;;;6.46;70.07
18819;BME280;9537;45.594;9.294;2023-03-19T04:33:47;99901.25;;;6.46;70.51
18819;BME280;9537;45.594;9.294;2023-03-19T04:34:48;99898.63;;;6.46;70.52
18819;BME280;9537;45.594;9.294;2023-03-19T04:35:51;99898.50;;;6.47;70.03
18819;BME280;9537;45.594;9.294;2023-03-19T04:36:52;99896.28;;;6.43;70.10
18819;BME280;9537;45.594;9.294;2023-03-19T04:37:54;99904.88;;;6.45;69.90
18819;BME280;9537;45.594;9.294;2023-03-19T04:38:55;99902.25;;;6.45;70.38
18819;BME280;9537;45.594;9.294;2023-03-19T04:39:57;99899.19;;;6.40;70.59
18819;BME280;9537;45.594;9.294;2023-03-19T04:40:59;99898.09;;;6.42;70.78
18819;BME280;9537;45.594;9.294;2023-03-19T04:42:02;99897.00;;;6.45;70.13
18819;BME280;9537;45.594;9.294;2023-03-19T04:43:04;99903.75;;;6.47;70.32
18819;BME280;9537;45.594;9.294;2023-03-19T04:44:07;99898.78;;;6.44;70.57
18819;BME280;9537;45.594;9.294;2023-03-19T04:45:08;99896.16;;;6.35;70.99
18819;BME280;9537;45.594;9.294;2023-03-19T04:46:12;99889.81;;;6.37;69.92
18819;BME280;9537;45.594;9.294;2023-03-19T04:47:15;99902.09;;;6.37;70.45
18819;BME280;9537;45.594;9.294;2023-03-19T04:48:16;99895.06;;;6.37;69.93
18819;BME280;9537;45.594;9.294;2023-03-19T04:49:19;99896.16;;;6.35;70.24
18819;BME280;9537;45.594;9.294;2023-03-19T04:50:20;99896.84;;;6.37;70.76
18819;BME280;9537;45.594;9.294;2023-03-19T04:51:23;99895.75;;;6.39;70.11
18819;BME280;9537;45.594;9.294;2023-03-19T04:52:24;99890.22;;;6.42;70.42
18819;BME280;9537;45.594;9.294;2023-03-19T04:53:26;99889.41;;;6.42;70.55
18819;BME280;9537;45.594;9.294;2023-03-19T04:54:28;99898.22;;;6.41;70.62
18819;BME280;9537;45.594;9.294;2023-03-19T04:55:30;99898.22;;;6.41;70.01
18819;BME280;9537;45.594;9.294;2023-03-19T04:56:31;99903.47;;;6.41;69.76
18819;BME280;9537;45.594;9.294;2023-03-19T04:57:33;99907.34;;;6.37;70.60
18819;BME280;9537;45.594;9.294;2023-03-19T04:58:34;99902.50;;;6.32;70.53
18819;BME280;9537;45.594;9.294;2023-03-19T04:59:36;99906.94;;;6.22;71.07
18819;BME280;9537;45.594;9.294;2023-03-19T05:00:37;99911.38;;;6.21;70.87
18819;BME280;9537;45.594;9.294;2023-03-19T05:01:41;99908.59;;;6.23;70.42
18819;BME280;9537;45.594;9.294;2023-03-19T05:02:43;99912.19;;;6.22;70.40
18819;BME280;9537;45.594;9.294;2023-03-19T05:03:45;99909.41;;;6.23;71.06
18819;BME280;9537;45.594;9.294;2023-03-19T05:04:46;99911.75;;;6.26;70.59
18819;BME280;9537;45.594;9.294;2023-03-19T05:05:49;99905.56;;;6.27;71.00
18819;BME280;9537;45.594;9.294;2023-03-19T05:06:50;99906.25;;;6.29;70.70
18819;BME280;9537;45.594;9.294;2023-03-19T05:07:52;99892.19;;;6.30;71.20
18819;BME280;9537;45.594;9.294;2023-03-19T05:08:53;99903.78;;;6.28;71.21
18819;BME280;9537;45.594;9.294;2023-03-19T05:09:56;99900.31;;;6.27;71.02
18819;BME280;9537;45.594;9.294;2023-03-19T05:10:57;99898.94;;;6.23;70.97
18819;BME280;9537;45.594;9.294;2023-03-19T05:11:59;99898.25;;;6.21;70.31
18819;BME280;9537;45.594;9.294;2023-03-19T05:13:00;99905.44;;;6.19;70.49
18819;BME280;9537;45.594;9.294;2023-03-19T05:14:03;99910.13;;;6.16;70.57
18819;BME280;9537;45.594;9.294;2023-03-19T05:15:05;99909.56;;;6.12;70.87
18819;BME280;9537;45.594;9.294;2023-03-19T05:16:07;99910.00;;;6.07;71.38
18819;BME280;9537;45.594;9.294;2023-03-19T05:17:10;99916.47;;;6.03;71.61
18819;BME280;9537;45.594;9.294;2023-03-19T05:18:15;99916.34;;;6.05;71.33
18819;BME280;9537;45.594;9.294;2023-03-19T05:19:16;99913.16;;;6.01;71.26
18819;BME280;9537;45.594;9.294;2023-03-19T05:20:18;99910.38;;;6.03;71.21
18819;BME280;9537;45.594;9.294;2023-03-19T05:21:19;99904.59;;;5.99;71.56
18819;BME280;9537;45.594;9.294;2023-03-19T05:22:22;99907.34;;;5.98;71.83
18819;BME280;9537;45.594;9.294;2023-03-19T05:23:23;99898.25;;;6.02;71.46
18819;BME280;9537;45.594;9.294;2023-03-19T05:24:25;99897.97;;;6.05;71.72
18819;BME280;9537;45.594;9.294;2023-03-19T05:25:26;99901.31;;;6.07;71.34
18819;BME280;9537;45.594;9.294;2023-03-19T05:26:29;99894.09;;;6.09;71.56
18819;BME280;9537;45.594;9.294;2023-03-19T05:27:30;99895.78;;;6.10;71.76
18819;BME280;9537;45.594;9.294;2023-03-19T05:28:32;99891.19;;;6.12;71.68
18819;BME280;9537;45.594;9.294;2023-03-19T05:29:34;99889.56;;;6.11;71.34
18819;BME280;9537;45.594;9.294;2023-03-19T05:30:37;99897.69;;;6.08;71.93
18819;BME280;9537;45.594;9.294;2023-03-19T05:31:38;99897.00;;;6.06;72.33
18819;BME280;9537;45.594;9.294;2023-03-19T05:32:42;99906.25;;;6.00;72.68
18819;BME280;9537;45.594;9.294;2023-03-19T05:33:44;99909.97;;;5.98;72.17
18819;BME280;9537;45.594;9.294;2023-03-19T05:34:46;99896.56;;;6.01;72.36
18819;BME280;9537;45.594;9.294;2023-03-19T05:35:47;99895.47;;;6.03;72.24
18819;BME280;9537;45.594;9.294;2023-03-19T05:36:50;99894.09;;;5.99;72.51
18819;BME280;9537;45.594;9.294;2023-03-19T05:37:52;99894.09;;;5.99;72.27
18819;BME280;9537;45.594;9.294;2023-03-19T05:38:55;99893.13;;;6.00;72.56
18819;BME280;9537;45.594;9.294;2023-03-19T05:39:56;99897.44;;;6.01;72.75